Shin Mei Maru — JG5617 — position and weather

sailwx.info

Track history (hours):
 
Tides and Currents Weather Stations Pressure Air Temp Water Temp Dewpoint Dewpoint Depression Visibility Wind Speed Wind Dir Waves Ship Positions

Shin Mei Maru

Last reported at 2017-Apr-27 13:02 UTC. Time now 2017-Apr-30 11:10 UTC.
Position N 33°57' E 135°00'.

Length 160 m; draft 6.8 m.

Type: Cargo ship. MMSI: 431100922.

Date/timePositionNaut miles runAvg speedWind from/ knotsBaromVisibWave heightAir tempDewpointWater temp
2017-Apr-27 13:02N 33°57' E 135°00'121.8
2017-Apr-27 13:00N 33°58' E 135°00'1020.3
2017-Apr-27 12:30N 34°08' E 134°59'1019.3
2017-Apr-27 11:59N 34°18' E 134°59'918.5
2017-Apr-27 11:30N 34°25' E 135°04'1020.2
2017-Apr-27 11:00N 34°32' E 135°13'815.7
2017-Apr-27 10:30N 34°37' E 135°21'3 5.6
2017-Apr-27 10:00N 34°37' E 135°25'0 0.0
2017-Apr-27 09:20N 34°37' E 135°25'0 0.0
2017-Apr-27 08:56N 34°37' E 135°25'0 0.0
2017-Apr-27 08:26N 34°37' E 135°25'0 0.0
2017-Apr-27 03:50N 34°37' E 135°25'0 0.0
2017-Apr-27 03:26N 34°37' E 135°25'0 0.0
2017-Apr-27 02:56N 34°37' E 135°25'0 0.0
2017-Apr-27 01:28N 34°37' E 135°25'2 5.3
2017-Apr-27 01:00N 34°36' E 135°22'918.4
2017-Apr-27 00:30N 34°30' E 135°14'918.7
2017-Apr-27 00:00N 34°23' E 135°06'917.7
2017-Apr-26 23:29N 34°16' E 134°60'918.8
2017-Apr-26 23:00N 34°06' E 135°00'23815.7
2017-Apr-26 07:54N 35°04' E 139°40'818.7
2017-Apr-26 07:27N 35°11' E 139°46'613.1
2017-Apr-26 07:00N 35°17' E 139°45'714.2
2017-Apr-26 06:30N 35°24' E 139°42'816.9
2017-Apr-26 06:00N 35°29' E 139°50'713.6
2017-Apr-26 05:30N 35°36' E 139°47'3 5.6
2017-Apr-26 05:00N 35°38' E 139°46'0 0.0
2017-Apr-26 04:28N 35°38' E 139°46'0 0.0
2017-Apr-26 03:43N 35°38' E 139°46'0 0.0
2017-Apr-26 03:28N 35°38' E 139°46'0 0.0
2017-Apr-26 02:46N 35°38' E 139°46'0 0.0
2017-Apr-26 02:28N 35°38' E 139°46'0 0.0
2017-Apr-26 01:58N 35°38' E 139°46'0 0.0
2017-Apr-26 01:22N 35°38' E 139°46'0 0.0
2017-Apr-26 00:52N 35°38' E 139°46'0 0.0
2017-Apr-26 00:28N 35°38' E 139°46'0 0.0
2017-Apr-25 23:58N 35°38' E 139°46'0 0.0
2017-Apr-25 23:28N 35°38' E 139°46'0 0.0
2017-Apr-25 22:58N 35°38' E 139°46'0 0.0
2017-Apr-25 22:28N 35°38' E 139°46'0 0.0
2017-Apr-25 22:00N 35°38' E 139°46'3 6.3
2017-Apr-25 21:30N 35°35' E 139°47'815.1
2017-Apr-25 21:00N 35°28' E 139°51'815.4
2017-Apr-25 20:30N 35°22' E 139°45'611.5
2017-Apr-25 20:00N 35°16' E 139°46'714.9
2017-Apr-25 19:30N 35°09' E 139°47'918.8
2017-Apr-25 19:00N 34°60' E 139°44'816.2
2017-Apr-25 18:30N 34°52' E 139°48'915.9
2017-Apr-25 17:58N 34°53' E 139°58'  
2017-Apr-21 20:11N 34°57' E 140°08'419.9
2017-Apr-21 20:00N 34°55' E 140°04'1219.7
2017-Apr-21 19:22N 34°48' E 139°52'719.2
2017-Apr-21 19:00N 34°45' E 139°44'241 7.6
2017-Apr-20 11:26N 33°56' E 134°59'817.4
2017-Apr-20 11:00N 34°04' E 134°58'918.1
2017-Apr-20 10:30N 34°13' E 134°59'1017.6
2017-Apr-20 09:58N 34°22' E 135°01'817.7
2017-Apr-20 09:30N 34°27' E 135°09'917.7
2017-Apr-20 09:00N 34°32' E 135°18'713.3
2017-Apr-20 08:30N 34°36' E 135°24'1 1.3
2017-Apr-20 08:00N 34°37' E 135°25'0 0.0
2017-Apr-20 07:24N 34°37' E 135°25'0 0.0
2017-Apr-20 07:00N 34°37' E 135°25'0 0.0
2017-Apr-20 06:30N 34°37' E 135°25'0 0.0
2017-Apr-20 06:00N 34°37' E 135°25'0 0.0
2017-Apr-20 05:30N 34°37' E 135°25'0 0.0
2017-Apr-20 05:00N 34°37' E 135°25'0 0.0
2017-Apr-20 04:30N 34°37' E 135°25'0 0.0
2017-Apr-20 04:00N 34°37' E 135°25'0 0.0
2017-Apr-20 03:30N 34°37' E 135°25'0 0.0
2017-Apr-20 03:00N 34°37' E 135°25'0 0.0
2017-Apr-20 02:30N 34°37' E 135°25'0 0.0
2017-Apr-20 02:00N 34°37' E 135°25'0 0.0
2017-Apr-20 01:30N 34°37' E 135°25'1 2.4
2017-Apr-20 01:00N 34°36' E 135°23'918.0
2017-Apr-20 00:30N 34°31' E 135°15'1019.2
2017-Apr-20 00:00N 34°24' E 135°07'918.5
2017-Apr-19 23:30N 34°17' E 134°59'1019.7
2017-Apr-19 23:00N 34°07' E 134°60'22315.5
2017-Apr-19 08:38N 34°54' E 139°24'217.8
2017-Apr-19 08:29N 34°55' E 139°27'918.6
2017-Apr-19 08:00N 35°01' E 139°35'918.9
2017-Apr-19 07:30N 35°07' E 139°44'815.3
2017-Apr-19 07:00N 35°15' E 139°46'611.3
2017-Apr-19 06:30N 35°20' E 139°43'713.2
2017-Apr-19 06:00N 35°26' E 139°45'815.9
2017-Apr-19 05:30N 35°32' E 139°51'713.7
2017-Apr-19 05:00N 35°38' E 139°46'0 0.3
2017-Apr-19 04:30N 35°38' E 139°46'0 0.0
2017-Apr-19 03:48N 35°38' E 139°46'0 0.0
2017-Apr-19 03:30N 35°38' E 139°46'0 0.0
2017-Apr-19 03:00N 35°38' E 139°46'0 0.0
2017-Apr-19 02:30N 35°38' E 139°46'0 0.0
2017-Apr-19 02:00N 35°38' E 139°46'0 0.0
2017-Apr-19 01:24N 35°38' E 139°46'0 0.0
2017-Apr-19 01:00N 35°38' E 139°46'0 0.0
2017-Apr-19 00:30N 35°38' E 139°46'0 0.0
2017-Apr-18 23:51N 35°38' E 139°46'0 0.0
2017-Apr-18 23:30N 35°38' E 139°46'0 0.0
2017-Apr-18 23:01N 35°38' E 139°46'3 5.1
2017-Apr-18 22:31N 35°36' E 139°47'713.6
2017-Apr-18 22:01N 35°30' E 139°52'917.2
2017-Apr-18 21:30N 35°23' E 139°46'612.2
2017-Apr-18 21:01N 35°17' E 139°45'713.5
2017-Apr-18 20:30N 35°11' E 139°47'918.3
2017-Apr-18 20:00N 35°02' E 139°45'815.5
2017-Apr-18 19:30N 34°54' E 139°46'1015.5
2017-Apr-18 18:51N 34°52' E 139°59'514.8
2017-Apr-18 18:30N 34°55' E 140°04'1914.7
2017-Apr-18 17:14N 35°04' E 140°24'  
Track history (hours):
 
Tides and Currents Weather Stations Pressure Air Temp Water Temp Dewpoint Dewpoint Depression Visibility Wind Speed Wind Dir Waves Ship Positions

Shin Mei Maru

Last reported at 2017-Apr-27 13:02 UTC. Time now 2017-Apr-30 11:10 UTC.
Position N 33°57' E 135°00'.

Length 160 m; draft 6.8 m.

Type: Cargo ship. MMSI: 431100922.

Date/timePositionNaut miles runAvg speedWind from/ knotsBaromVisibWave heightAir tempDewpointWater temp
2017-Apr-27 13:02N 33°57' E 135°00'121.8
2017-Apr-27 13:00N 33°58' E 135°00'1020.3
2017-Apr-27 12:30N 34°08' E 134°59'1019.3
2017-Apr-27 11:59N 34°18' E 134°59'918.5
2017-Apr-27 11:30N 34°25' E 135°04'1020.2
2017-Apr-27 11:00N 34°32' E 135°13'815.7
2017-Apr-27 10:30N 34°37' E 135°21'3 5.6
2017-Apr-27 10:00N 34°37' E 135°25'0 0.0
2017-Apr-27 09:20N 34°37' E 135°25'0 0.0
2017-Apr-27 08:56N 34°37' E 135°25'0 0.0
2017-Apr-27 08:26N 34°37' E 135°25'0 0.0
2017-Apr-27 03:50N 34°37' E 135°25'0 0.0
2017-Apr-27 03:26N 34°37' E 135°25'0 0.0
2017-Apr-27 02:56N 34°37' E 135°25'0 0.0
2017-Apr-27 01:28N 34°37' E 135°25'2 5.3
2017-Apr-27 01:00N 34°36' E 135°22'918.4
2017-Apr-27 00:30N 34°30' E 135°14'918.7
2017-Apr-27 00:00N 34°23' E 135°06'917.7
2017-Apr-26 23:29N 34°16' E 134°60'918.8
2017-Apr-26 23:00N 34°06' E 135°00'23815.7
2017-Apr-26 07:54N 35°04' E 139°40'818.7
2017-Apr-26 07:27N 35°11' E 139°46'613.1
2017-Apr-26 07:00N 35°17' E 139°45'714.2
2017-Apr-26 06:30N 35°24' E 139°42'816.9
2017-Apr-26 06:00N 35°29' E 139°50'713.6
2017-Apr-26 05:30N 35°36' E 139°47'3 5.6
2017-Apr-26 05:00N 35°38' E 139°46'0 0.0
2017-Apr-26 04:28N 35°38' E 139°46'0 0.0
2017-Apr-26 03:43N 35°38' E 139°46'0 0.0
2017-Apr-26 03:28N 35°38' E 139°46'0 0.0
2017-Apr-26 02:46N 35°38' E 139°46'0 0.0
2017-Apr-26 02:28N 35°38' E 139°46'0 0.0
2017-Apr-26 01:58N 35°38' E 139°46'0 0.0
2017-Apr-26 01:22N 35°38' E 139°46'0 0.0
2017-Apr-26 00:52N 35°38' E 139°46'0 0.0
2017-Apr-26 00:28N 35°38' E 139°46'0 0.0
2017-Apr-25 23:58N 35°38' E 139°46'0 0.0
2017-Apr-25 23:28N 35°38' E 139°46'0 0.0
2017-Apr-25 22:58N 35°38' E 139°46'0 0.0
2017-Apr-25 22:28N 35°38' E 139°46'0 0.0
2017-Apr-25 22:00N 35°38' E 139°46'3 6.3
2017-Apr-25 21:30N 35°35' E 139°47'815.1
2017-Apr-25 21:00N 35°28' E 139°51'815.4
2017-Apr-25 20:30N 35°22' E 139°45'611.5
2017-Apr-25 20:00N 35°16' E 139°46'714.9
2017-Apr-25 19:30N 35°09' E 139°47'918.8
2017-Apr-25 19:00N 34°60' E 139°44'816.2
2017-Apr-25 18:30N 34°52' E 139°48'915.9
2017-Apr-25 17:58N 34°53' E 139°58'  
2017-Apr-21 20:11N 34°57' E 140°08'419.9
2017-Apr-21 20:00N 34°55' E 140°04'1219.7
2017-Apr-21 19:22N 34°48' E 139°52'719.2
2017-Apr-21 19:00N 34°45' E 139°44'241 7.6
2017-Apr-20 11:26N 33°56' E 134°59'817.4
2017-Apr-20 11:00N 34°04' E 134°58'918.1
2017-Apr-20 10:30N 34°13' E 134°59'1017.6
2017-Apr-20 09:58N 34°22' E 135°01'817.7
2017-Apr-20 09:30N 34°27' E 135°09'917.7
2017-Apr-20 09:00N 34°32' E 135°18'713.3
2017-Apr-20 08:30N 34°36' E 135°24'1 1.3
2017-Apr-20 08:00N 34°37' E 135°25'0 0.0
2017-Apr-20 07:24N 34°37' E 135°25'0 0.0
2017-Apr-20 07:00N 34°37' E 135°25'0 0.0
2017-Apr-20 06:30N 34°37' E 135°25'0 0.0
2017-Apr-20 06:00N 34°37' E 135°25'0 0.0
2017-Apr-20 05:30N 34°37' E 135°25'0 0.0
2017-Apr-20 05:00N 34°37' E 135°25'0 0.0
2017-Apr-20 04:30N 34°37' E 135°25'0 0.0
2017-Apr-20 04:00N 34°37' E 135°25'0 0.0
2017-Apr-20 03:30N 34°37' E 135°25'0 0.0
2017-Apr-20 03:00N 34°37' E 135°25'0 0.0
2017-Apr-20 02:30N 34°37' E 135°25'0 0.0
2017-Apr-20 02:00N 34°37' E 135°25'0 0.0
2017-Apr-20 01:30N 34°37' E 135°25'1 2.4
2017-Apr-20 01:00N 34°36' E 135°23'918.0
2017-Apr-20 00:30N 34°31' E 135°15'1019.2
2017-Apr-20 00:00N 34°24' E 135°07'918.5
2017-Apr-19 23:30N 34°17' E 134°59'1019.7
2017-Apr-19 23:00N 34°07' E 134°60'22315.5
2017-Apr-19 08:38N 34°54' E 139°24'217.8
2017-Apr-19 08:29N 34°55' E 139°27'918.6
2017-Apr-19 08:00N 35°01' E 139°35'918.9
2017-Apr-19 07:30N 35°07' E 139°44'815.3
2017-Apr-19 07:00N 35°15' E 139°46'611.3
2017-Apr-19 06:30N 35°20' E 139°43'713.2
2017-Apr-19 06:00N 35°26' E 139°45'815.9
2017-Apr-19 05:30N 35°32' E 139°51'713.7
2017-Apr-19 05:00N 35°38' E 139°46'0 0.3
2017-Apr-19 04:30N 35°38' E 139°46'0 0.0
2017-Apr-19 03:48N 35°38' E 139°46'0 0.0
2017-Apr-19 03:30N 35°38' E 139°46'0 0.0
2017-Apr-19 03:00N 35°38' E 139°46'0 0.0
2017-Apr-19 02:30N 35°38' E 139°46'0 0.0
2017-Apr-19 02:00N 35°38' E 139°46'0 0.0
2017-Apr-19 01:24N 35°38' E 139°46'0 0.0
2017-Apr-19 01:00N 35°38' E 139°46'0 0.0
2017-Apr-19 00:30N 35°38' E 139°46'0 0.0
2017-Apr-18 23:51N 35°38' E 139°46'0 0.0
2017-Apr-18 23:30N 35°38' E 139°46'0 0.0
2017-Apr-18 23:01N 35°38' E 139°46'3 5.1
2017-Apr-18 22:31N 35°36' E 139°47'713.6
2017-Apr-18 22:01N 35°30' E 139°52'917.2
2017-Apr-18 21:30N 35°23' E 139°46'612.2
2017-Apr-18 21:01N 35°17' E 139°45'713.5
2017-Apr-18 20:30N 35°11' E 139°47'918.3
2017-Apr-18 20:00N 35°02' E 139°45'815.5
2017-Apr-18 19:30N 34°54' E 139°46'1015.5
2017-Apr-18 18:51N 34°52' E 139°59'514.8
2017-Apr-18 18:30N 34°55' E 140°04'1914.7
2017-Apr-18 17:14N 35°04' E 140°24'  

Dump ship's entire track history